Time;durP1;ratioP1;P1;durP2;ratioP2;P2;SDS_P1;SDS_P2;PMS_P1;PMS_P2;Temp;Humidity;BMP_temperature;BMP_pressure;BME280_temperature;BME280_humidity;BME280_pressure;Samples;Min_cycle;Max_cycle;Signal;HPM_P1;HPM_P2
2021/09/18 00:01:51;;;;;;;3.50;2.15;;;20.40;99.90;;;;;;4954721;28;20062;-88
2021/09/18 00:04:16;;;;;;;4.03;1.80;;;20.30;99.90;;;;;;4953641;29;20514;-88
2021/09/18 00:06:42;;;;;;;2.83;1.75;;;20.20;99.90;;;;;;4954702;28;20031;-88
2021/09/18 00:09:08;;;;;;;2.85;1.70;;;20.30;99.90;;;;;;4954885;28;20540;-88
2021/09/18 00:11:34;;;;;;;2.45;1.80;;;20.30;99.90;;;;;;4955022;28;20026;-91
2021/09/18 00:13:59;;;;;;;4.88;1.98;;;20.30;99.90;;;;;;4954452;28;20575;-88
2021/09/18 00:16:25;;;;;;;2.65;2.00;;;20.20;99.90;;;;;;4953300;28;20062;-88
2021/09/18 00:18:51;;;;;;;3.00;1.80;;;20.30;99.90;;;;;;4954599;28;20063;-88
2021/09/18 00:21:17;;;;;;;3.58;1.98;;;20.20;99.90;;;;;;4953605;28;20015;-88
2021/09/18 00:23:42;;;;;;;3.17;2.20;;;20.10;99.90;;;;;;4954734;29;20035;-88
2021/09/18 00:26:08;;;;;;;3.53;1.90;;;20.00;99.90;;;;;;4939513;28;20024;-88
2021/09/18 00:28:35;;;;;;;4.55;2.15;;;19.90;99.90;;;;;;4955047;28;20023;-88
2021/09/18 00:31:00;;;;;;;4.20;2.00;;;19.90;99.90;;;;;;4955026;28;20027;-89
2021/09/18 00:33:26;;;;;;;2.80;2.00;;;19.80;99.90;;;;;;4953725;28;20099;-88
2021/09/18 00:35:52;;;;;;;3.78;2.42;;;19.80;99.90;;;;;;4954731;28;20054;-88
2021/09/18 00:38:17;;;;;;;5.13;1.83;;;19.80;99.90;;;;;;4953722;28;20074;-88
2021/09/18 00:40:43;;;;;;;4.90;2.25;;;19.70;99.90;;;;;;4953297;28;20369;-88
2021/09/18 00:43:09;;;;;;;4.13;2.40;;;19.70;99.90;;;;;;4954660;28;20645;-88
2021/09/18 00:45:35;;;;;;;2.88;1.80;;;19.70;99.90;;;;;;4954075;28;20070;-88
2021/09/18 00:48:01;;;;;;;4.28;2.15;;;19.70;99.90;;;;;;4954086;28;20132;-88
2021/09/18 00:50:26;;;;;;;5.40;2.15;;;19.70;99.90;;;;;;4954427;28;20122;-88
2021/09/18 00:52:52;;;;;;;4.50;2.05;;;19.60;99.90;;;;;;4952982;28;20058;-88
2021/09/18 00:55:18;;;;;;;3.95;1.90;;;19.60;99.90;;;;;;4952567;28;20456;-88
2021/09/18 00:57:44;;;;;;;2.08;1.63;;;19.50;99.90;;;;;;4952839;28;20019;-88
2021/09/18 01:00:13;;;;;;;5.93;2.10;;;19.60;99.90;;;;;;4952601;28;20034;-88
2021/09/18 01:02:39;;;;;;;2.78;1.95;;;19.50;99.90;;;;;;4952221;28;20034;-88
2021/09/18 01:05:06;;;;;;;5.32;2.05;;;19.50;99.90;;;;;;4952631;29;20027;-88
2021/09/18 01:07:32;;;;;;;3.13;1.88;;;19.40;99.90;;;;;;4953624;28;20090;-88
2021/09/18 01:09:58;;;;;;;3.35;2.00;;;19.30;99.90;;;;;;4953725;28;20484;-88
2021/09/18 01:12:24;;;;;;;3.08;1.88;;;19.20;99.90;;;;;;4953780;28;20447;-88
2021/09/18 01:14:50;;;;;;;3.42;2.20;;;19.30;99.90;;;;;;4953978;29;20051;-88
2021/09/18 01:17:17;;;;;;;7.18;2.33;;;19.20;99.90;;;;;;4953905;28;20114;-88
2021/09/18 01:19:43;;;;;;;4.13;2.10;;;19.10;99.90;;;;;;4954030;28;20529;-88
2021/09/18 01:22:09;;;;;;;4.85;2.22;;;19.10;99.90;;;;;;4952961;28;20024;-88
2021/09/18 01:24:36;;;;;;;3.15;1.95;;;19.10;99.90;;;;;;4954140;28;20023;-88
2021/09/18 01:27:02;;;;;;;4.85;2.22;;;19.20;99.90;;;;;;4953804;28;20027;-88
2021/09/18 01:29:27;;;;;;;5.32;2.40;;;19.20;99.90;;;;;;4953713;28;20037;-88
2021/09/18 01:31:53;;;;;;;2.97;2.10;;;19.10;99.90;;;;;;4953600;28;20507;-88
2021/09/18 01:34:21;;;;;;;3.15;2.10;;;19.20;99.90;;;;;;4953717;28;20510;-88
2021/09/18 01:36:48;;;;;;;3.88;2.60;;;19.30;99.90;;;;;;4953916;29;20023;-89
2021/09/18 01:39:16;;;;;;;4.10;2.70;;;19.20;99.90;;;;;;4953756;28;20114;-88
2021/09/18 01:41:44;;;;;;;5.38;2.53;;;19.00;99.90;;;;;;4952140;28;20039;-88
2021/09/18 01:44:11;;;;;;;3.15;2.60;;;18.90;99.90;;;;;;4953908;28;20038;-90
2021/09/18 01:46:37;;;;;;;4.72;2.38;;;18.90;99.90;;;;;;4953517;28;20058;-88
2021/09/18 01:49:04;;;;;;;4.53;2.80;;;18.90;99.90;;;;;;4952298;28;20488;-88
2021/09/18 01:51:32;;;;;;;6.68;3.10;;;19.00;99.90;;;;;;4951497;29;20298;-88
2021/09/18 01:53:58;;;;;;;2.75;2.33;;;18.80;99.90;;;;;;4953311;29;20089;-88
2021/09/18 01:56:25;;;;;;;5.13;2.67;;;18.80;99.90;;;;;;4952173;29;20055;-88
2021/09/18 01:58:51;;;;;;;4.57;2.92;;;18.80;99.90;;;;;;4953106;28;20023;-88
2021/09/18 02:01:16;;;;;;;7.43;2.83;;;18.80;99.90;;;;;;4951462;29;20029;-89
2021/09/18 02:03:42;;;;;;;4.03;2.47;;;18.80;99.90;;;;;;4952816;28;20085;-88
2021/09/18 02:06:08;;;;;;;5.60;3.28;;;18.80;99.90;;;;;;4952866;28;20054;-88
2021/09/18 02:08:33;;;;;;;6.70;2.70;;;18.80;99.90;;;;;;4952638;28;20447;-88
2021/09/18 02:10:59;;;;;;;3.72;2.65;;;18.70;99.90;;;;;;4951320;28;20550;-88
2021/09/18 02:13:26;;;;;;;4.55;2.65;;;18.70;99.90;;;;;;4951348;28;20070;-88
2021/09/18 02:15:52;;;;;;;3.92;2.60;;;18.50;99.90;;;;;;4939007;28;20055;-88
2021/09/18 02:18:17;;;;;;;3.78;2.50;;;18.60;99.90;;;;;;4952678;28;20258;-88
2021/09/18 02:20:43;;;;;;;4.53;2.60;;;18.60;99.90;;;;;;4951200;28;20289;-88
2021/09/18 02:23:11;;;;;;;4.68;2.78;;;18.50;99.90;;;;;;4951433;29;20088;-88
2021/09/18 02:25:38;;;;;;;3.88;2.67;;;18.50;99.90;;;;;;4950991;28;20023;-88
2021/09/18 02:28:05;;;;;;;5.70;3.20;;;18.40;99.90;;;;;;4952170;28;20027;-89
2021/09/18 02:30:33;;;;;;;5.28;2.92;;;18.40;99.90;;;;;;4952051;28;20066;-88
2021/09/18 02:33:01;;;;;;;4.28;2.90;;;18.40;99.90;;;;;;4951960;28;20055;-88
2021/09/18 02:35:28;;;;;;;4.97;2.92;;;18.40;99.90;;;;;;4952478;28;20046;-89
2021/09/18 02:37:59;;;;;;;3.75;2.80;;;18.40;99.90;;;;;;4952035;28;20031;-89
2021/09/18 02:40:26;;;;;;;3.83;3.10;;;18.60;99.90;;;;;;4952089;29;20027;-89
2021/09/18 02:42:56;;;;;;;5.03;2.72;;;18.70;99.90;;;;;;4952600;28;20015;-89
2021/09/18 02:45:22;;;;;;;4.55;2.70;;;18.80;99.90;;;;;;4951890;28;20035;-89
2021/09/18 02:47:48;;;;;;;3.97;2.80;;;18.70;99.90;;;;;;4951983;28;20053;-88
2021/09/18 02:50:18;;;;;;;3.42;2.60;;;18.70;99.90;;;;;;4951859;29;20094;-88
2021/09/18 02:52:44;;;;;;;4.18;2.97;;;18.80;99.90;;;;;;4951913;28;20043;-88
2021/09/18 02:55:10;;;;;;;4.20;2.60;;;18.70;99.90;;;;;;4950269;28;20571;-89
2021/09/18 02:57:36;;;;;;;2.95;2.60;;;18.70;99.90;;;;;;4952046;28;20074;-93
2021/09/18 03:00:05;;;;;;;9.25;3.00;;;18.70;99.90;;;;;;4950692;28;20029;-88
2021/09/18 03:02:30;;;;;;;5.32;2.80;;;18.70;99.90;;;;;;4952068;28;20050;-88
2021/09/18 03:04:56;;;;;;;4.15;2.60;;;18.70;99.90;;;;;;4950465;28;20484;-88
2021/09/18 03:07:22;;;;;;;6.55;2.72;;;18.70;99.90;;;;;;4950398;28;20468;-88
2021/09/18 03:09:47;;;;;;;4.75;2.83;;;18.60;99.90;;;;;;4950464;28;20182;-89
2021/09/18 03:12:13;;;;;;;4.50;3.33;;;18.60;99.90;;;;;;4951572;28;20034;-88
2021/09/18 03:14:40;;;;;;;8.60;2.90;;;18.60;99.90;;;;;;4951851;28;20051;-88
2021/09/18 03:17:05;;;;;;;3.38;2.80;;;18.60;99.90;;;;;;4951898;28;20110;-90
2021/09/18 03:19:31;;;;;;;4.03;2.50;;;18.60;99.90;;;;;;4952537;28;20071;-92
2021/09/18 03:21:57;;;;;;;6.13;2.60;;;18.60;99.90;;;;;;4952216;28;20027;-90
2021/09/18 03:24:23;;;;;;;6.03;3.20;;;18.60;99.90;;;;;;4950321;28;20042;-90
2021/09/18 03:26:48;;;;;;;6.15;2.80;;;18.60;99.90;;;;;;4951070;28;20543;-89
2021/09/18 03:29:14;;;;;;;4.38;3.45;;;18.50;99.90;;;;;;4952087;28;20106;-89
2021/09/18 03:31:42;;;;;;;7.85;3.00;;;18.60;99.90;;;;;;4950117;29;20231;-89
2021/09/18 03:34:08;;;;;;;4.50;3.05;;;18.60;99.90;;;;;;4951443;28;20373;-89
2021/09/18 03:36:34;;;;;;;3.42;2.70;;;18.70;99.90;;;;;;4951664;28;20030;-88
2021/09/18 03:39:00;;;;;;;4.38;3.17;;;18.70;99.90;;;;;;4949993;29;20214;-89
2021/09/18 03:41:26;;;;;;;5.50;3.28;;;18.70;99.90;;;;;;4951511;28;20107;-90
2021/09/18 03:43:52;;;;;;;5.43;2.92;;;18.50;99.90;;;;;;4951307;29;20110;-88
2021/09/18 03:46:18;;;;;;;5.80;3.00;;;18.60;99.90;;;;;;4951844;28;20058;-89
2021/09/18 03:48:43;;;;;;;4.47;2.85;;;18.60;99.90;;;;;;4951629;28;20396;-89
2021/09/18 03:51:09;;;;;;;7.43;2.92;;;18.60;99.90;;;;;;4951243;28;20016;-88
2021/09/18 03:53:35;;;;;;;4.30;2.90;;;18.60;99.90;;;;;;4951360;29;20035;-89
2021/09/18 03:56:01;;;;;;;6.40;3.10;;;18.70;99.90;;;;;;4949440;28;20023;-89
2021/09/18 03:58:27;;;;;;;5.40;3.30;;;18.70;99.90;;;;;;4951508;28;20026;-89
2021/09/18 04:00:53;;;;;;;5.40;2.70;;;18.70;99.90;;;;;;4949914;28;20027;-89
2021/09/18 04:03:18;;;;;;;5.65;2.90;;;18.60;99.90;;;;;;4951234;28;20031;-89
2021/09/18 04:05:44;;;;;;;7.75;3.08;;;18.60;99.90;;;;;;4951119;28;20488;-88
2021/09/18 04:08:10;;;;;;;3.97;2.63;;;18.60;99.90;;;;;;4954247;28;20051;-89
2021/09/18 04:10:38;;;;;;;3.92;2.08;;;18.60;99.90;;;;;;4954953;28;20180;-89
2021/09/18 04:13:04;;;;;;;5.50;1.50;;;18.70;99.90;;;;;;4954922;28;20031;-89
2021/09/18 04:15:30;;;;;;;7.50;1.92;;;18.70;99.90;;;;;;4954818;28;20054;-94
2021/09/18 04:17:56;;;;;;;7.20;2.30;;;18.70;99.90;;;;;;4955034;28;20020;-89
2021/09/18 04:20:22;;;;;;;8.88;2.20;;;18.80;99.90;;;;;;4955428;28;20098;-88
2021/09/18 04:22:48;;;;;;;8.15;1.80;;;18.90;99.90;;;;;;4953685;28;20118;-89
2021/09/18 04:25:14;;;;;;;7.35;1.98;;;18.90;99.90;;;;;;4954655;28;20158;-89
2021/09/18 04:27:40;;;;;;;6.32;1.65;;;19.00;99.90;;;;;;4955268;28;20488;-89
2021/09/18 04:30:07;;;;;;;6.38;1.50;;;19.00;99.90;;;;;;4955087;28;20023;-89
2021/09/18 04:32:33;;;;;;;7.38;1.48;;;19.10;99.90;;;;;;4955118;28;20023;-88
2021/09/18 04:34:58;;;;;;;6.68;1.27;;;19.10;99.90;;;;;;4954658;28;20038;-89
2021/09/18 04:37:24;;;;;;;9.35;1.67;;;19.10;99.90;;;;;;4953782;28;20027;-89
2021/09/18 04:39:50;;;;;;;7.32;1.77;;;19.20;99.90;;;;;;4953408;28;20026;-89
2021/09/18 04:42:16;;;;;;;6.47;1.60;;;19.20;99.90;;;;;;4955161;29;20035;-89
2021/09/18 04:44:42;;;;;;;9.57;1.50;;;19.20;99.90;;;;;;4954595;29;20066;-88
2021/09/18 04:47:08;;;;;;;11.23;1.42;;;19.10;99.90;;;;;;4953240;28;20449;-85
2021/09/18 04:49:34;;;;;;;9.88;2.03;;;19.10;99.90;;;;;;4954802;28;20050;-90
2021/09/18 04:52:00;;;;;;;13.98;1.88;;;19.10;99.90;;;;;;4954972;29;20023;-90
2021/09/18 04:54:25;;;;;;;9.82;1.88;;;18.90;99.90;;;;;;4955347;29;20067;-92
2021/09/18 04:56:51;;;;;;;10.85;1.45;;;18.80;99.90;;;;;;4951879;28;20499;-91
2021/09/18 04:59:17;;;;;;;10.55;1.48;;;18.70;99.90;;;;;;4954979;28;20027;-88
2021/09/18 05:01:43;;;;;;;11.40;1.83;;;18.70;99.90;;;;;;4954344;28;20037;-89
2021/09/18 05:04:08;;;;;;;7.80;1.27;;;18.70;99.90;;;;;;4953268;28;20093;-88
2021/09/18 05:06:34;;;;;;;7.78;1.40;;;18.60;99.90;;;;;;4954370;28;20015;-88
2021/09/18 05:09:00;;;;;;;11.20;1.83;;;18.60;99.90;;;;;;4954622;28;20480;-88
2021/09/18 05:11:25;;;;;;;9.32;1.83;;;18.60;99.90;;;;;;4953116;28;20046;-88
2021/09/18 05:13:51;;;;;;;8.48;1.73;;;18.60;99.90;;;;;;4953973;28;20055;-89
2021/09/18 05:16:17;;;;;;;11.68;1.42;;;18.60;99.90;;;;;;4954090;28;20098;-88
2021/09/18 05:18:42;;;;;;;8.77;1.60;;;18.60;99.90;;;;;;4953534;28;20064;-88
2021/09/18 05:21:08;;;;;;;9.07;1.58;;;18.60;99.90;;;;;;4954046;28;20162;-88
2021/09/18 05:23:34;;;;;;;8.13;1.35;;;18.60;99.90;;;;;;4953793;28;20039;-87
2021/09/18 05:25:59;;;;;;;8.43;1.40;;;18.50;99.90;;;;;;4953102;28;20022;-88
2021/09/18 05:28:25;;;;;;;9.82;1.77;;;18.50;99.90;;;;;;4952325;29;20499;-87
2021/09/18 05:30:51;;;;;;;10.00;1.40;;;18.50;99.90;;;;;;4953547;28;20058;-88
2021/09/18 05:33:17;;;;;;;7.75;1.25;;;18.60;99.90;;;;;;4951846;28;20050;-87
2021/09/18 05:35:42;;;;;;;7.47;1.63;;;18.60;99.90;;;;;;4953208;28;20374;-87
2021/09/18 05:38:08;;;;;;;8.07;1.38;;;18.50;99.90;;;;;;4953944;28;20465;-87
2021/09/18 05:40:34;;;;;;;6.72;1.40;;;18.50;99.90;;;;;;4953774;28;20034;-86
2021/09/18 05:42:59;;;;;;;9.00;1.67;;;18.50;99.90;;;;;;4953553;28;20055;-88
2021/09/18 05:45:25;;;;;;;8.80;1.52;;;18.50;99.90;;;;;;4953785;28;20485;-87
2021/09/18 05:47:51;;;;;;;10.48;1.70;;;18.60;99.90;;;;;;4953164;29;20086;-87
2021/09/18 05:50:17;;;;;;;8.63;1.70;;;18.60;99.90;;;;;;4953275;28;20024;-87
2021/09/18 05:52:42;;;;;;;10.38;2.45;;;18.60;99.90;;;;;;4953318;28;20115;-87
2021/09/18 05:55:08;;;;;;;14.77;1.75;;;18.60;99.90;;;;;;4953426;29;20416;-88
2021/09/18 05:57:34;;;;;;;10.15;1.40;;;18.50;99.90;;;;;;4951961;29;20183;-87
2021/09/18 06:00:00;;;;;;;9.00;1.70;;;18.60;99.90;;;;;;4953007;28;20167;-88
2021/09/18 06:02:25;;;;;;;9.98;1.77;;;18.60;99.90;;;;;;4952998;28;20015;-87
2021/09/18 06:04:51;;;;;;;13.77;2.00;;;18.70;99.90;;;;;;4951772;29;20027;-88
2021/09/18 06:07:18;;;;;;;13.23;1.73;;;18.70;99.90;;;;;;4952714;28;20369;-87
2021/09/18 06:09:43;;;;;;;7.20;1.60;;;18.70;99.90;;;;;;4952998;28;20031;-87
2021/09/18 06:12:09;;;;;;;8.38;1.60;;;18.70;99.90;;;;;;4951776;28;20438;-86
2021/09/18 06:14:35;;;;;;;11.32;1.65;;;18.70;99.90;;;;;;4951226;28;20050;-88
2021/09/18 06:17:01;;;;;;;10.93;1.80;;;18.60;99.90;;;;;;4952439;29;20035;-88
2021/09/18 06:19:27;;;;;;;12.15;1.73;;;18.60;99.90;;;;;;4952794;29;20046;-88
2021/09/18 06:21:53;;;;;;;10.70;1.67;;;18.60;99.90;;;;;;4952574;28;20066;-88
2021/09/18 06:24:18;;;;;;;10.60;1.95;;;18.60;99.90;;;;;;4952487;28;20023;-87
2021/09/18 06:26:45;;;;;;;12.32;1.92;;;18.60;99.90;;;;;;4951217;28;20049;-88
2021/09/18 06:29:11;;;;;;;9.15;1.83;;;18.60;99.90;;;;;;4952346;28;20050;-87
2021/09/18 06:31:37;;;;;;;8.35;1.60;;;18.60;99.90;;;;;;4951555;28;20101;-88
2021/09/18 06:34:03;;;;;;;12.45;1.67;;;18.60;99.90;;;;;;4952460;29;20639;-87
2021/09/18 06:36:29;;;;;;;9.73;1.42;;;18.60;99.90;;;;;;4952395;29;20024;-86
2021/09/18 06:38:55;;;;;;;10.32;1.58;;;18.60;99.90;;;;;;4952568;28;20031;-86
2021/09/18 06:41:20;;;;;;;11.70;1.85;;;18.60;99.90;;;;;;4951000;28;20023;-87
2021/09/18 06:43:48;;;;;;;9.95;1.98;;;18.50;99.90;;;;;;4951124;28;20037;-87
2021/09/18 06:46:14;;;;;;;12.43;1.92;;;18.50;99.90;;;;;;4950949;28;20024;-87
2021/09/18 06:48:40;;;;;;;12.32;1.85;;;18.50;99.90;;;;;;4951073;28;20399;-87
2021/09/18 06:51:06;;;;;;;12.07;1.85;;;18.50;99.90;;;;;;4950984;28;20118;-86
2021/09/18 06:53:32;;;;;;;10.02;1.75;;;18.50;99.90;;;;;;4950733;29;20114;-86
2021/09/18 06:55:57;;;;;;;8.70;1.45;;;18.50;99.90;;;;;;4952110;29;20473;-86
2021/09/18 06:58:23;;;;;;;10.10;1.50;;;18.50;99.90;;;;;;4950589;28;20035;-87
2021/09/18 07:00:48;;;;;;;10.65;1.60;;;18.50;99.90;;;;;;4951746;28;20019;-86
2021/09/18 07:03:14;;;;;;;9.02;1.80;;;18.40;99.90;;;;;;4950557;28;20730;-86
2021/09/18 07:05:40;;;;;;;7.75;1.35;;;18.40;99.90;;;;;;4951701;29;20023;-86
2021/09/18 07:08:06;;;;;;;10.57;1.73;;;18.50;99.90;;;;;;4952039;28;20027;-88
2021/09/18 07:10:32;;;;;;;10.77;1.73;;;18.40;99.90;;;;;;4950621;29;20085;-86
2021/09/18 07:12:58;;;;;;;11.05;1.83;;;18.50;99.90;;;;;;4951777;28;20420;-86
2021/09/18 07:15:24;;;;;;;20.98;2.28;;;18.50;99.90;;;;;;4951422;28;20174;-88
2021/09/18 07:17:50;;;;;;;9.63;1.63;;;18.50;99.90;;;;;;4951750;28;20046;-86
2021/09/18 07:20:16;;;;;;;11.98;2.03;;;18.50;99.90;;;;;;4951664;28;20086;-86
2021/09/18 07:22:42;;;;;;;9.07;1.73;;;18.60;99.90;;;;;;4951674;29;20523;-87
2021/09/18 07:25:09;;;;;;;11.45;1.70;;;18.70;99.90;;;;;;4952096;29;20155;-86
2021/09/18 07:27:34;;;;;;;8.20;1.65;;;18.70;99.90;;;;;;4950259;29;20026;-87
2021/09/18 07:30:00;;;;;;;8.93;1.60;;;18.90;99.90;;;;;;4949783;28;20122;-86
2021/09/18 07:32:26;;;;;;;11.15;1.92;;;19.10;99.90;;;;;;4950132;28;20426;-89
2021/09/18 07:34:51;;;;;;;10.65;1.52;;;19.30;99.90;;;;;;4951763;28;20631;-85
2021/09/18 07:37:17;;;;;;;8.05;1.60;;;19.40;99.90;;;;;;4951295;29;20019;-85
2021/09/18 07:39:43;;;;;;;11.02;1.27;;;19.40;99.90;;;;;;4950135;29;20122;-84
2021/09/18 07:42:09;;;;;;;10.52;1.60;;;19.40;99.90;;;;;;4952824;28;20106;-85
2021/09/18 07:44:34;;;;;;;14.13;2.30;;;19.30;99.90;;;;;;4955091;28;20038;-86
2021/09/18 07:47:00;;;;;;;12.68;1.52;;;19.30;99.90;;;;;;4955238;29;20290;-85
2021/09/18 07:49:26;;;;;;;11.45;1.27;;;19.20;99.90;;;;;;4955475;28;20098;-85
2021/09/18 07:51:54;;;;;;;7.32;1.40;;;19.20;99.90;;;;;;4955568;28;20047;-85
2021/09/18 07:54:19;;;;;;;7.35;1.10;;;19.20;99.90;;;;;;4955461;28;20035;-85
2021/09/18 07:56:45;;;;;;;8.52;1.52;;;19.10;99.90;;;;;;4955326;28;20027;-86
2021/09/18 07:59:11;;;;;;;6.45;1.42;;;19.20;99.90;;;;;;4953946;28;20102;-86
2021/09/18 08:01:36;;;;;;;5.50;1.17;;;19.20;99.90;;;;;;4954950;28;20023;-86
2021/09/18 08:04:03;;;;;;;8.98;1.83;;;19.30;99.90;;;;;;4954758;28;20506;-85
2021/09/18 08:06:30;;;;;;;7.00;1.15;;;19.30;99.90;;;;;;4955179;28;20024;-85
2021/09/18 08:08:56;;;;;;;7.75;1.50;;;19.40;99.90;;;;;;4941541;29;20034;-84
2021/09/18 08:11:23;;;;;;;6.43;1.48;;;19.40;99.90;;;;;;4953738;28;20031;-85
2021/09/18 08:13:50;;;;;;;9.50;1.63;;;19.50;99.90;;;;;;4954542;28;20035;-86
2021/09/18 08:16:16;;;;;;;9.32;1.63;;;19.50;99.90;;;;;;4954725;28;20449;-85
2021/09/18 08:18:42;;;;;;;6.47;1.30;;;19.60;99.90;;;;;;4953175;29;20543;-85
2021/09/18 08:21:09;;;;;;;7.28;1.27;;;19.70;99.90;;;;;;4954816;28;20103;-86
2021/09/18 08:23:35;;;;;;;8.57;1.30;;;19.80;99.90;;;;;;4953270;28;20433;-85
2021/09/18 08:26:01;;;;;;;9.75;1.52;;;19.80;99.90;;;;;;4955096;28;20066;-84
2021/09/18 08:28:26;;;;;;;6.38;1.30;;;19.70;99.90;;;;;;4953317;28;20430;-84
2021/09/18 08:30:52;;;;;;;9.50;1.15;;;19.70;99.90;;;;;;4953146;28;20038;-84
2021/09/18 08:33:17;;;;;;;6.68;1.10;;;19.60;99.90;;;;;;4954945;28;20041;-85
2021/09/18 08:35:43;;;;;;;6.90;0.90;;;19.60;99.90;;;;;;4954226;29;20066;-85
2021/09/18 08:38:09;;;;;;;6.50;1.15;;;19.60;99.90;;;;;;4954368;28;20033;-85
2021/09/18 08:40:38;;;;;;;4.70;0.82;;;19.50;99.90;;;;;;4954436;28;20031;-85
2021/09/18 08:43:04;;;;;;;4.03;0.80;;;19.50;99.90;;;;;;4953381;28;20028;-86
2021/09/18 08:45:31;;;;;;;4.50;0.93;;;19.50;99.90;;;;;;4952743;28;20059;-86
2021/09/18 08:48:01;;;;;;;7.13;1.05;;;19.50;99.90;;;;;;4954185;28;20055;-87
2021/09/18 08:50:28;;;;;;;5.90;1.08;;;19.50;99.90;;;;;;4954130;28;20031;-85
2021/09/18 08:52:55;;;;;;;6.95;1.17;;;19.50;99.90;;;;;;4953431;28;20495;-86
2021/09/18 08:55:21;;;;;;;6.88;1.13;;;19.70;99.90;;;;;;4953591;29;20122;-83
2021/09/18 08:57:47;;;;;;;6.75;0.90;;;19.70;99.90;;;;;;4953286;28;20106;-82
2021/09/18 09:00:40;;;;;;;4.65;0.85;;;19.80;99.90;;;;;;4953140;29;20492;-82
2021/09/18 09:03:08;;;;;;;4.97;1.38;;;19.90;99.90;;;;;;4950171;28;20027;-83
2021/09/18 09:05:36;;;;;;;5.72;1.17;;;19.90;99.90;;;;;;4953016;29;20393;-86
2021/09/18 09:08:28;;;;;;;6.88;1.08;;;20.00;99.90;;;;;;4953282;28;20019;-84
2021/09/18 09:10:54;;;;;;;10.75;1.65;;;20.10;99.90;;;;;;4950667;28;20039;-85
2021/09/18 09:13:23;;;;;;;10.05;1.30;;;20.10;99.90;;;;;;4951069;28;20085;-85
2021/09/18 09:16:04;;;;;;;7.85;1.48;;;20.10;99.90;;;;;;4953755;28;20063;-84
2021/09/18 09:18:36;;;;;;;7.40;1.00;;;20.20;99.90;;;;;;4953118;28;20050;-84
2021/09/18 09:21:29;;;;;;;7.05;1.73;;;20.30;99.90;;;;;;4953575;28;20019;-85
2021/09/18 09:24:07;;;;;;;9.68;0.88;;;20.20;99.90;;;;;;4953675;28;20031;-85
2021/09/18 09:26:34;;;;;;;8.27;1.60;;;20.30;99.90;;;;;;4953227;28;20035;-84
2021/09/18 09:29:00;;;;;;;7.47;1.00;;;20.40;99.90;;;;;;4953797;29;20118;-85
2021/09/18 09:31:29;;;;;;;8.55;1.40;;;20.50;99.90;;;;;;4951014;29;20194;-85
2021/09/18 09:34:17;;;;;;;5.45;1.20;;;20.40;99.90;;;;;;4953891;28;20031;-85
2021/09/18 09:36:52;;;;;;;6.78;1.20;;;20.40;99.90;;;;;;4953442;28;20464;-84
2021/09/18 09:39:22;;;;;;;8.07;1.38;;;20.50;99.90;;;;;;4953036;28;20027;-84
2021/09/18 09:41:49;;;;;;;8.57;1.17;;;20.60;99.90;;;;;;4953031;28;20098;-84
2021/09/18 09:44:17;;;;;;;9.77;1.55;;;20.70;99.90;;;;;;4953250;29;20023;-84
2021/09/18 09:46:58;;;;;;;9.77;1.42;;;20.80;99.90;;;;;;4952786;29;20031;-84
2021/09/18 09:49:23;;;;;;;9.32;1.98;;;20.90;99.90;;;;;;4953148;28;20271;-84
2021/09/18 09:51:49;;;;;;;8.63;1.52;;;21.10;99.90;;;;;;4953106;29;20275;-84
2021/09/18 09:54:25;;;;;;;7.13;1.25;;;21.20;99.90;;;;;;4953298;28;20480;-85
2021/09/18 09:57:12;;;;;;;6.32;1.40;;;21.00;99.90;;;;;;4953216;28;20039;-84
2021/09/18 09:59:38;;;;;;;10.02;1.35;;;20.80;99.90;;;;;;4942527;29;20031;-84
2021/09/18 10:02:07;;;;;;;10.27;1.65;;;20.80;99.90;;;;;;4951353;28;20023;-84
2021/09/18 10:04:33;;;;;;;9.77;1.65;;;20.80;99.90;;;;;;4952505;28;20027;-85
2021/09/18 10:06:59;;;;;;;11.80;1.40;;;20.70;99.90;;;;;;4953034;29;20042;-84
2021/09/18 10:09:25;;;;;;;11.90;1.80;;;20.60;99.90;;;;;;4959277;28;20015;-84
2021/09/18 10:11:56;;;;;;;9.45;1.33;;;20.70;99.90;;;;;;4952633;28;20031;-84
2021/09/18 10:14:26;;;;;;;10.80;1.95;;;20.60;99.90;;;;;;4952237;29;20051;-84
2021/09/18 10:16:58;;;;;;;11.07;1.63;;;20.40;99.90;;;;;;4952595;28;20019;-84
2021/09/18 10:24:51;;;;;;;14.27;1.80;;;20.60;99.90;;;;;;4952904;28;20038;-84
2021/09/18 10:27:20;;;;;;;10.05;1.70;;;20.70;99.90;;;;;;4952187;28;20077;-84
2021/09/18 10:29:47;;;;;;;10.27;1.70;;;20.90;99.90;;;;;;4952364;28;20023;-84
2021/09/18 10:32:13;;;;;;;9.20;1.65;;;21.10;99.90;;;;;;4951096;29;20090;-84
2021/09/18 10:34:39;;;;;;;11.00;2.13;;;21.20;99.90;;;;;;4952166;29;20066;-83
2021/09/18 10:37:05;;;;;;;8.77;1.25;;;21.40;99.90;;;;;;4952243;28;20443;-85
2021/09/18 10:39:32;;;;;;;8.50;1.40;;;21.50;99.90;;;;;;4951315;28;20023;-84
2021/09/18 10:42:02;;;;;;;9.85;1.70;;;21.60;99.90;;;;;;4932095;28;20030;-84
2021/09/18 10:44:51;;;;;;;9.57;1.45;;;21.50;99.90;;;;;;4949555;28;20023;-85
2021/09/18 10:47:37;;;;;;;7.95;1.50;;;21.50;99.90;;;;;;4949029;28;20067;-84
2021/09/18 10:50:24;;;;;;;6.38;1.38;;;21.60;99.90;;;;;;4952317;28;20035;-74
2021/09/18 10:53:04;;;;;;;7.93;1.35;;;21.70;99.90;;;;;;4945214;28;20309;-74
2021/09/18 10:55:48;;;;;;;9.43;1.30;;;21.60;99.90;;;;;;4951940;28;20070;-75
2021/09/18 10:58:13;;;;;;;7.63;1.50;;;21.60;99.90;;;;;;4951998;29;20119;-74
2021/09/18 11:00:43;;;;;;;9.25;1.77;;;21.70;99.90;;;;;;4951889;29;20138;-75
2021/09/18 11:03:09;;;;;;;9.50;2.03;;;21.70;99.90;;;;;;4951861;28;20392;-74
2021/09/18 11:05:38;;;;;;;9.98;2.30;;;21.90;99.90;;;;;;4951896;29;20027;-75
2021/09/18 11:08:15;;;;;;;12.30;2.17;;;22.10;99.90;;;;;;4951677;28;20027;-75
2021/09/18 11:10:44;;;;;;;8.05;1.33;;;22.10;99.90;;;;;;4951928;29;20027;-75
2021/09/18 11:13:11;;;;;;;10.35;1.58;;;22.00;99.90;;;;;;4951420;28;20042;-76
2021/09/18 11:15:47;;;;;;;10.70;1.85;;;21.70;99.90;;;;;;4951438;29;20051;-76
2021/09/18 11:18:37;;;;;;;9.00;1.67;;;21.40;99.90;;;;;;4950938;28;20109;-76
2021/09/18 11:21:23;;;;;;;6.00;1.50;;;21.40;99.90;;;;;;4948335;29;20024;-77
2021/09/18 11:23:51;;;;;;;9.75;1.67;;;21.50;99.90;;;;;;4951739;28;20195;-76
2021/09/18 11:26:41;;;;;;;7.85;1.60;;;21.60;99.90;;;;;;4951779;29;20122;-76
2021/09/18 11:29:34;;;;;;;8.85;1.27;;;21.60;99.90;;;;;;4951614;28;20384;-77
2021/09/18 11:32:21;;;;;;;7.07;1.38;;;21.70;99.90;;;;;;4946691;28;20481;-77
2021/09/18 11:34:53;;;;;;;11.35;2.28;;;22.10;99.90;;;;;;4951625;28;20043;-77
2021/09/18 11:37:28;;;;;;;7.10;1.58;;;22.00;99.90;;;;;;4951699;29;20346;-76
2021/09/18 11:39:58;;;;;;;9.50;1.70;;;22.10;99.90;;;;;;4951327;29;20108;-77
2021/09/18 11:42:36;;;;;;;7.43;1.50;;;22.00;99.90;;;;;;4951713;28;20551;-77
2021/09/18 11:45:16;;;;;;;8.00;1.80;;;22.10;99.90;;;;;;4951604;28;20067;-76
2021/09/18 11:47:45;;;;;;;8.93;1.83;;;22.00;99.90;;;;;;4951253;28;20625;-76
2021/09/18 11:50:25;;;;;;;8.48;1.83;;;22.00;99.90;;;;;;4951408;29;20034;-77
2021/09/18 11:52:57;;;;;;;11.60;2.10;;;22.00;99.90;;;;;;4951340;29;20058;-77
2021/09/18 11:55:39;;;;;;;8.23;1.67;;;22.00;99.90;;;;;;4951295;28;20094;-76
2021/09/18 11:58:21;;;;;;;10.25;2.15;;;22.00;99.90;;;;;;4949794;28;20774;-76
2021/09/18 12:00:50;;;;;;;6.47;1.20;;;21.90;99.90;;;;;;4951315;29;20027;-77
2021/09/18 12:03:26;;;;;;;7.88;1.27;;;21.90;99.90;;;;;;4951055;29;20031;-77
2021/09/18 12:06:00;;;;;;;7.97;1.35;;;22.20;99.90;;;;;;4951304;28;20027;-76
2021/09/18 12:08:32;;;;;;;8.68;1.58;;;22.10;99.90;;;;;;4951088;28;20160;-76
2021/09/18 12:11:08;;;;;;;8.68;1.50;;;22.00;99.90;;;;;;4951234;29;20023;-76
2021/09/18 12:13:35;;;;;;;6.22;1.27;;;21.80;99.90;;;;;;4950617;28;20058;-77
2021/09/18 12:16:03;;;;;;;7.45;1.40;;;21.70;99.90;;;;;;4951281;28;20016;-77
2021/09/18 12:18:40;;;;;;;9.07;1.55;;;21.80;99.90;;;;;;4950951;28;20111;-76
2021/09/18 12:21:15;;;;;;;7.20;1.40;;;21.90;99.90;;;;;;4951130;29;20385;-77
2021/09/18 12:23:46;;;;;;;5.93;1.13;;;21.90;99.90;;;;;;4951554;29;20019;-77
2021/09/18 12:26:13;;;;;;;7.03;1.23;;;21.90;99.90;;;;;;4950917;28;20026;-77
2021/09/18 12:28:39;;;;;;;8.10;1.50;;;21.60;99.90;;;;;;4951544;28;20038;-77
2021/09/18 12:31:14;;;;;;;11.27;1.85;;;21.60;99.90;;;;;;4954426;28;20031;-77
2021/09/18 12:33:40;;;;;;;12.77;1.70;;;21.50;99.90;;;;;;4953900;28;20034;-78
2021/09/18 12:36:07;;;;;;;8.52;1.70;;;21.40;99.90;;;;;;4953212;29;20027;-79
2021/09/18 12:38:35;;;;;;;8.38;1.38;;;21.50;99.90;;;;;;4953783;29;20034;-78
2021/09/18 12:41:04;;;;;;;11.80;1.80;;;21.50;99.90;;;;;;4954313;28;20102;-79
2021/09/18 12:43:30;;;;;;;13.32;2.30;;;21.50;99.90;;;;;;4954306;29;20031;-78
2021/09/18 12:46:10;;;;;;;8.13;1.20;;;21.50;99.90;;;;;;4953942;28;20174;-78
2021/09/18 12:48:38;;;;;;;12.13;2.00;;;21.50;99.90;;;;;;4954062;29;20106;-78
2021/09/18 12:51:19;;;;;;;9.80;1.60;;;21.30;99.90;;;;;;4954056;29;20031;-79
2021/09/18 12:53:50;;;;;;;10.77;1.52;;;21.40;99.90;;;;;;4954062;28;20043;-79
2021/09/18 12:56:20;;;;;;;5.03;1.13;;;21.40;99.90;;;;;;4954041;29;20500;-78